Stations météo

réclame
Mon MeteoGroup
Venezia Lido, Italie (16101): Température de l'air & dewpoint: 08.08.2018 17:00:00 - 14.08.2018 17:00:00 (CEST)Venezia Lido, Italie (16101): Vitesse du vent: 08.08.2018 17:00:00 - 14.08.2018 17:00:00 (CEST)Venezia Lido, Italie (16101): Direction du vent: 08.08.2018 17:00:00 - 14.08.2018 17:00:00 (CEST)Venezia Lido, Italie (16101): reduced air pressure: 08.08.2018 17:00:00 - 14.08.2018 17:00:00 (CEST)Venezia Lido, Italie (16101): Quantités de précipitations: 08.08.2018 17:00:00 - 14.08.2018 17:00:00 (CEST)
Date & Time tt [°C] td [°C] ff [km/h] ff [knt] dd ppp [hPa] rr [mm]
14.08.2018 17:00:00 - - - - - - -
14.08.2018 16:00:00 27,5 20,8 9 5 W 1010,9 -
14.08.2018 15:00:00 26,7 20,2 8 4 W 1011,5 -
14.08.2018 14:00:00 26,3 19,4 9 5 SSW 1012,2 0,0
14.08.2018 13:00:00 26,8 19,4 5 3 S 1012,2 -
14.08.2018 12:00:00 26,1 20,1 5 3 NE 1012,2 -
14.08.2018 11:00:00 23,7 19,4 4 2 NNE 1012,1 -
14.08.2018 10:00:00 23,0 19,5 8 4 NNE 1011,7 -
14.08.2018 09:00:00 22,1 20,0 4 2 NNW 1011,9 -
14.08.2018 08:00:00 20,7 18,9 4 2 N 1011,6 -
14.08.2018 07:00:00 19,5 17,8 4 2 NNE 1011,0 -
14.08.2018 06:00:00 20,1 18,3 2 1 ENE 1010,5 -
14.08.2018 05:00:00 20,6 18,8 4 2 NE 1010,4 -
14.08.2018 04:00:00 20,5 18,7 4 2 WNW 1010,8 -
14.08.2018 03:00:00 20,6 18,8 4 2 W 1010,4 -
14.08.2018 02:00:00 20,2 18,4 4 2 WSW 1010,6 -
14.08.2018 01:00:00 21,2 18,9 4 2 W 1011,1 -
14.08.2018 00:00:00 20,6 18,8 4 2 NNW 1011,4 -
13.08.2018 23:00:00 20,0 18,2 9 5 NE 1010,7 -
13.08.2018 22:00:00 20,6 18,8 5 3 ENE 1010,5 -
13.08.2018 21:00:00 21,6 18,3 4 2 SSW 1011,1 -
13.08.2018 20:00:00 23,2 16,2 37 20 W 1011,0 0,0
13.08.2018 19:00:00 30,0 19,6 9 5 SE 1009,7 -
13.08.2018 18:00:00 29,2 20,6 9 5 S 1010,2 -
13.08.2018 17:00:00 30,2 22,6 13 7 S 1010,3 -
13.08.2018 16:00:00 30,5 22,9 15 8 SSW 1011,3 -
13.08.2018 15:00:00 30,2 23,6 13 7 SSE 1011,8 -
13.08.2018 14:00:00 30,1 22,8 11 6 SSE 1012,6 0,0
13.08.2018 13:00:00 30,0 22,4 8 4 SSE 1013,0 -
13.08.2018 12:00:00 29,8 21,7 8 4 SSE 1013,3 -
13.08.2018 11:00:00 27,8 20,8 5 3 N 1013,7 -
13.08.2018 10:00:00 26,9 21,6 4 2 NE 1013,6 -
13.08.2018 09:00:00 25,6 21,8 4 2 NE 1013,4 -
13.08.2018 08:00:00 24,1 21,4 4 2 ENE 1013,3 0,0
13.08.2018 07:00:00 23,5 21,2 2 1 NNE 1013,3 -
13.08.2018 06:00:00 21,9 18,8 4 2 N 1013,1 -
13.08.2018 05:00:00 23,2 19,1 0 0 N 1013,2 -
13.08.2018 04:00:00 24,6 20,9 4 2 WNW 1013,5 -
13.08.2018 03:00:00 25,3 21,9 5 3 NW 1014,0 -
13.08.2018 02:00:00 26,1 22,1 9 5 W 1014,6 0,0
13.08.2018 01:00:00 26,0 21,4 8 4 WSW 1014,7 -
13.08.2018 00:00:00 26,4 22,0 9 5 WSW 1014,8 -
12.08.2018 23:00:00 25,3 19,4 5 3 SW 1014,8 -
12.08.2018 22:00:00 24,6 17,5 2 1 SW 1014,6 -
12.08.2018 21:00:00 26,1 17,1 2 1 SW 1014,5 -
12.08.2018 20:00:00 28,7 18,7 5 3 W 1014,6 0,0
12.08.2018 19:00:00 29,3 19,6 8 4 SSW 1014,9 -
12.08.2018 18:00:00 30,0 19,9 9 5 SSW 1015,5 -
12.08.2018 17:00:00 30,0 19,9 11 6 SSW 1015,9 -
12.08.2018 16:00:00 30,0 19,9 11 6 SSW 1016,7 -
12.08.2018 15:00:00 30,2 19,2 9 5 S 1017,1 -
12.08.2018 14:00:00 30,2 18,9 8 4 S 1017,8 0,0
12.08.2018 13:00:00 30,0 17,4 11 6 SE 1018,4 -
12.08.2018 12:00:00 30,0 18,7 16 9 ESE 1018,3 -
12.08.2018 11:00:00 28,5 17,9 16 9 E 1018,5 -
12.08.2018 10:00:00 26,9 17,6 21 11 E 1018,2 -
12.08.2018 09:00:00 25,6 19,0 21 11 E 1018,2 -
12.08.2018 08:00:00 23,8 19,0 15 8 ENE 1018,2 0,0
12.08.2018 07:00:00 23,0 19,3 16 9 E 1018,0 -
12.08.2018 06:00:00 23,0 18,7 16 9 E 1017,6 -
12.08.2018 05:00:00 23,6 19,9 16 9 E 1017,6 -
12.08.2018 04:00:00 24,1 20,2 18 10 E 1017,6 -
12.08.2018 03:00:00 24,2 19,8 22 12 E 1017,6 -
12.08.2018 02:00:00 24,4 19,8 13 7 ENE 1017,9 0,0
12.08.2018 01:00:00 24,2 19,2 18 10 E 1018,1 -
12.08.2018 00:00:00 24,4 19,0 21 11 E 1017,9 -
11.08.2018 23:00:00 25,2 19,3 22 12 E 1017,7 -
11.08.2018 22:00:00 26,5 20,8 18 10 E 1017,5 -
11.08.2018 21:00:00 26,8 20,6 15 8 E 1016,9 -
11.08.2018 20:00:00 29,0 20,9 8 4 SE 1016,3 0,0
11.08.2018 19:00:00 29,9 20,4 5 3 SSE 1016,0 -
11.08.2018 18:00:00 30,6 20,8 8 4 SW 1016,2 -
11.08.2018 17:00:00 29,1 20,5 8 4 SW 1016,4 -
11.08.2018 16:00:00 30,7 20,3 9 5 S 1016,9 -
11.08.2018 15:00:00 31,2 21,3 11 6 SSE 1017,2 -
11.08.2018 14:00:00 31,5 21,6 11 6 SSE 1017,8 0,0
11.08.2018 13:00:00 31,0 22,6 13 7 SE 1018,2 -
11.08.2018 12:00:00 30,0 22,4 15 8 SE 1018,3 -
11.08.2018 11:00:00 30,1 22,2 13 7 SE 1018,5 -
11.08.2018 10:00:00 28,8 21,8 15 8 E 1018,2 -
11.08.2018 09:00:00 25,7 21,9 18 10 E 1018,2 -
11.08.2018 08:00:00 24,5 21,8 9 5 ENE 1018,0 0,0
11.08.2018 07:00:00 24,8 22,8 5 3 ENE 1017,7 -
11.08.2018 06:00:00 24,7 22,1 4 2 ENE 1017,4 -
11.08.2018 05:00:00 24,8 21,7 5 3 NE 1017,4 -
11.08.2018 04:00:00 25,0 21,0 8 4 ENE 1017,8 -
11.08.2018 03:00:00 27,2 21,7 2 1 NNE 1018,0 -
11.08.2018 02:00:00 27,9 21,9 4 2 W 1018,2 0,0
11.08.2018 01:00:00 28,3 22,5 8 4 WSW 1018,4 -
11.08.2018 00:00:00 28,1 23,0 5 3 WSW 1018,2 -
10.08.2018 23:00:00 28,5 23,1 9 5 SW 1018,1 -
10.08.2018 22:00:00 28,7 22,6 9 5 SW 1018,1 -
10.08.2018 21:00:00 29,0 21,7 8 4 SSW 1017,7 -
10.08.2018 20:00:00 30,0 21,1 8 4 SSW 1017,2 0,0
10.08.2018 19:00:00 30,9 20,8 8 4 SSW 1017,3 -
10.08.2018 18:00:00 32,0 18,9 11 6 S 1017,5 -
10.08.2018 17:00:00 33,3 16,6 8 4 WNW 1017,8 -
10.08.2018 16:00:00 33,3 16,6 8 4 WSW 1018,2 -
10.08.2018 15:00:00 32,8 16,6 9 5 WSW 1018,6 -
10.08.2018 14:00:00 31,6 20,2 8 4 WSW 1018,9 0,0
10.08.2018 13:00:00 30,2 16,9 9 5 W 1019,0 -
10.08.2018 12:00:00 29,3 18,7 8 4 W 1019,3 -
10.08.2018 11:00:00 27,6 20,1 5 3 NW 1019,2 -
10.08.2018 10:00:00 26,0 19,3 2 1 NNW 1018,9 -
10.08.2018 09:00:00 25,3 19,8 2 1 N 1018,5 -
10.08.2018 08:00:00 24,5 20,3 2 1 N 1018,1 0,0
10.08.2018 07:00:00 21,6 18,7 2 1 W 1017,8 -
10.08.2018 06:00:00 22,6 18,9 2 1 WNW 1017,3 -
10.08.2018 05:00:00 23,4 19,5 5 3 WNW 1016,9 -
10.08.2018 04:00:00 24,0 20,1 8 4 W 1016,6 -
10.08.2018 03:00:00 25,1 19,2 5 3 NW 1016,5 -
10.08.2018 02:00:00 24,6 18,7 4 2 NW 1016,3 0,0
10.08.2018 01:00:00 25,2 19,3 5 3 NNW 1016,9 -
10.08.2018 00:00:00 26,2 19,3 18 10 W 1017,6 -
09.08.2018 23:00:00 27,4 19,4 18 10 WNW 1017,3 -
09.08.2018 22:00:00 27,3 23,3 2 1 WNW 1016,2 -
09.08.2018 21:00:00 27,8 23,3 4 2 SSW 1015,3 -
09.08.2018 20:00:00 28,9 24,4 5 3 WSW 1014,8 0,0
09.08.2018 19:00:00 29,2 24,3 9 5 SW 1015,1 -
09.08.2018 18:00:00 30,7 24,3 11 6 S 1014,6 -
09.08.2018 17:00:00 31,0 24,4 13 7 S 1014,9 -
09.08.2018 16:00:00 31,7 24,0 11 6 SSW 1015,5 -
09.08.2018 15:00:00 31,2 23,5 11 6 S 1015,8 -
09.08.2018 14:00:00 31,3 24,4 11 6 S 1016,1 0,0
09.08.2018 13:00:00 30,7 24,6 11 6 S 1016,4 -
09.08.2018 12:00:00 30,3 24,6 9 5 S 1016,4 -
09.08.2018 11:00:00 29,0 24,3 8 4 ENE 1016,4 -
09.08.2018 10:00:00 28,1 24,3 8 4 E 1016,4 -
09.08.2018 09:00:00 25,6 23,6 4 2 NE 1016,3 -
09.08.2018 08:00:00 24,8 22,6 4 2 ENE 1015,9 0,0
09.08.2018 07:00:00 24,2 22,0 5 3 ENE 1015,5 -
09.08.2018 06:00:00 23,6 21,2 8 4 ENE 1015,2 -
09.08.2018 05:00:00 23,8 21,1 5 3 NE 1015,2 -
09.08.2018 04:00:00 24,7 21,4 5 3 N 1015,1 -
09.08.2018 03:00:00 25,3 21,9 4 2 NNE 1015,0 -
09.08.2018 02:00:00 25,7 22,3 4 2 NNE 1015,2 0,0
09.08.2018 01:00:00 25,4 21,8 4 2 E 1015,4 -
09.08.2018 00:00:00 26,6 22,6 4 2 N 1015,3 -
08.08.2018 23:00:00 27,0 22,1 4 2 NNE 1015,2 -
08.08.2018 22:00:00 27,2 21,4 4 2 NNE 1015,1 -
08.08.2018 21:00:00 27,7 20,2 4 2 N 1014,6 -
08.08.2018 20:00:00 28,9 20,8 2 1 NNE 1014,5 0,0
08.08.2018 19:00:00 30,1 23,7 2 1 SSE 1014,2 -
08.08.2018 18:00:00 31,7 22,7 4 2 ENE 1014,2 -
08.08.2018 17:00:00 30,2 25,0 4 2 SE 1014,8 -

tt = Température de l'air
td = dewpoint
ff = Vitesse du vent
dd = Direction du vent
ppp = reduced air pressure
rr = Quantités de précipitations

stations d'obs. à proximité